createdAt,value
2018-11-11T00:01:25.688Z,32.83
2018-11-11T00:03:56.439Z,39.53
2018-11-11T00:06:24.449Z,32.37
2018-11-11T00:08:54.066Z,33.40
2018-11-11T00:11:24.705Z,30.33
2018-11-11T00:13:53.635Z,31.23
2018-11-11T00:16:21.917Z,33.97
2018-11-11T00:18:49.850Z,30.37
2018-11-11T00:21:18.403Z,29.77
2018-11-11T00:23:50.288Z,33.43
2018-11-11T00:26:18.851Z,37.03
2018-11-11T00:28:47.165Z,31.63
2018-11-11T00:31:16.018Z,30.53
2018-11-11T00:33:44.376Z,36.10
2018-11-11T00:36:13.997Z,35.90
2018-11-11T00:38:42.256Z,32.97
2018-11-11T00:41:10.786Z,33.03
2018-11-11T00:43:39.509Z,35.07
2018-11-11T00:46:09.865Z,32.33
2018-11-11T00:48:38.565Z,38.63
2018-11-11T00:51:08.698Z,36.60
2018-11-11T00:53:37.081Z,37.93
2018-11-11T00:56:08.383Z,37.50
2018-11-11T00:58:36.415Z,37.43
2018-11-11T01:01:06.209Z,41.50
2018-11-11T01:03:34.639Z,38.23
2018-11-11T01:06:02.909Z,39.80
2018-11-11T01:08:31.137Z,41.07
2018-11-11T01:11:08.810Z,38.37
2018-11-11T01:13:38.295Z,39.33
2018-11-11T01:16:06.563Z,35.33
2018-11-11T01:18:35.039Z,36.63
2018-11-11T01:21:03.756Z,35.87
2018-11-11T01:23:32.023Z,36.37
2018-11-11T01:26:00.036Z,38.70
2018-11-11T01:28:43.023Z,39.53
2018-11-11T01:31:11.109Z,41.17
2018-11-11T01:33:41.308Z,44.97
2018-11-11T01:36:09.737Z,42.47
2018-11-11T01:38:38.016Z,49.30
2018-11-11T01:41:08.317Z,43.47
2018-11-11T01:43:36.460Z,42.00
2018-11-11T01:46:24.484Z,44.53
2018-11-11T01:49:18.102Z,40.37
2018-11-11T01:51:46.681Z,43.47
2018-11-11T01:54:15.473Z,35.37
2018-11-11T01:56:44.499Z,38.37
2018-11-11T01:59:12.526Z,37.27
2018-11-11T02:01:41.585Z,35.50
2018-11-11T02:04:09.562Z,34.67
2018-11-11T02:06:38.599Z,34.20
2018-11-11T02:09:10.299Z,35.77
2018-11-11T02:11:40.409Z,30.97
2018-11-11T02:14:08.422Z,29.30
2018-11-11T02:16:37.596Z,35.43
2018-11-11T02:19:06.315Z,29.20
2018-11-11T02:21:34.389Z,29.83
2018-11-11T02:24:03.178Z,32.33
2018-11-11T02:26:31.847Z,30.77
2018-11-11T02:29:05.593Z,32.13
2018-11-11T02:31:33.533Z,28.50
2018-11-11T02:34:01.465Z,28.73
2018-11-11T02:36:30.321Z,31.87
2018-11-11T02:38:58.426Z,26.37
2018-11-11T02:41:27.254Z,25.77
2018-11-11T02:43:55.412Z,32.33
2018-11-11T02:46:25.547Z,30.53
2018-11-11T02:48:53.668Z,30.20
2018-11-11T02:51:22.280Z,27.87
2018-11-11T02:53:52.107Z,30.50
2018-11-11T02:56:20.115Z,28.30
2018-11-11T02:58:48.253Z,26.87
2018-11-11T03:01:17.397Z,29.47
2018-11-11T03:03:45.487Z,26.13
2018-11-11T03:06:16.745Z,30.50
2018-11-11T03:09:09.111Z,27.30
2018-11-11T03:11:52.159Z,30.07
2018-11-11T03:14:27.536Z,27.43
2018-11-11T03:17:24.615Z,25.23
2018-11-11T03:20:19.103Z,23.97
2018-11-11T03:22:47.197Z,22.73
2018-11-11T03:25:19.599Z,23.67
2018-11-11T03:27:47.551Z,21.90
2018-11-11T03:30:19.361Z,21.53
2018-11-11T03:32:47.554Z,24.17
2018-11-11T03:35:16.391Z,24.00
2018-11-11T03:37:46.604Z,21.87
2018-11-11T03:40:19.384Z,19.27
2018-11-11T03:42:49.129Z,20.30
2018-11-11T03:45:18.346Z,18.00
2018-11-11T03:47:48.211Z,16.43
2018-11-11T03:50:18.596Z,14.27
2018-11-11T03:52:48.407Z,15.23
2018-11-11T03:55:16.671Z,14.97
2018-11-11T03:57:48.615Z,13.53
2018-11-11T04:00:36.624Z,14.13
2018-11-11T04:03:05.436Z,12.60
2018-11-11T04:05:39.187Z,12.27
2018-11-11T04:08:35.842Z,14.93
2018-11-11T04:11:29.201Z,14.43
2018-11-11T04:13:58.818Z,13.63
2018-11-11T04:16:27.632Z,15.00
2018-11-11T04:18:58.014Z,14.87
2018-11-11T04:21:26.039Z,13.07
2018-11-11T04:23:54.756Z,13.03
2018-11-11T04:26:23.542Z,13.80
2018-11-11T04:28:55.295Z,15.33
2018-11-11T04:31:23.413Z,13.07
2018-11-11T04:33:53.742Z,16.13
2018-11-11T04:36:21.809Z,16.90
2018-11-11T04:38:49.831Z,17.97
2018-11-11T04:41:18.756Z,14.50
2018-11-11T04:43:46.846Z,17.53
2018-11-11T04:46:16.517Z,15.60
2018-11-11T04:48:45.378Z,16.43
2018-11-11T04:51:14.383Z,19.97
2018-11-11T04:53:44.741Z,16.47
2018-11-11T04:56:12.812Z,17.67
2018-11-11T05:04:55.813Z,18.70
2018-11-11T05:07:25.057Z,18.30
2018-11-11T05:09:53.966Z,20.97
2018-11-11T05:12:22.872Z,21.33
2018-11-11T05:14:51.010Z,21.60
2018-11-11T05:17:19.559Z,19.60
2018-11-11T05:19:47.722Z,22.77
2018-11-11T05:22:16.757Z,20.27
2018-11-11T05:24:45.370Z,23.43
2018-11-11T05:27:14.017Z,24.27
2018-11-11T05:29:42.140Z,22.43
2018-11-11T05:32:10.688Z,27.03
2018-11-11T05:34:39.350Z,23.30
2018-11-11T05:37:07.305Z,26.80
2018-11-11T05:39:36.414Z,27.60
2018-11-11T05:42:08.683Z,29.17
2018-11-11T05:44:36.602Z,30.13
2018-11-11T05:47:04.634Z,29.70
2018-11-11T05:49:33.097Z,30.73
2018-11-11T05:52:02.408Z,33.27
2018-11-11T05:54:30.528Z,32.63
2018-11-11T05:56:58.482Z,34.53
2018-11-11T05:59:26.367Z,32.37
2018-11-11T06:01:56.305Z,33.20
2018-11-11T06:04:24.757Z,33.03
2018-11-11T06:06:53.658Z,35.73
2018-11-11T06:09:22.242Z,38.30
2018-11-11T06:11:51.025Z,35.57
2018-11-11T06:14:23.108Z,35.13
2018-11-11T06:16:52.317Z,35.13
2018-11-11T06:19:20.365Z,35.73
2018-11-11T06:21:48.340Z,37.30
2018-11-11T06:24:16.843Z,40.83
2018-11-11T06:26:44.975Z,36.47
2018-11-11T06:29:13.588Z,38.90
2018-11-11T06:31:42.137Z,40.67
2018-11-11T06:34:11.100Z,40.70
2018-11-11T06:36:39.021Z,40.10
2018-11-11T06:39:12.465Z,37.97
2018-11-11T06:41:41.200Z,36.70
2018-11-11T06:44:13.003Z,37.13
2018-11-11T06:46:42.202Z,35.83
2018-11-11T06:49:10.160Z,37.73
2018-11-11T06:51:39.038Z,34.37
2018-11-11T06:54:07.343Z,38.20
2018-11-11T06:56:37.179Z,39.73
2018-11-11T06:59:06.753Z,35.03
2018-11-11T07:01:35.765Z,35.70
2018-11-11T07:04:05.198Z,38.17
2018-11-11T07:06:34.782Z,35.80
2018-11-11T07:09:04.780Z,37.37
2018-11-11T07:11:32.763Z,38.60
2018-11-11T07:14:01.829Z,35.63
2018-11-11T07:16:30.431Z,37.03
2018-11-11T07:19:00.135Z,34.57
2018-11-11T07:21:27.978Z,36.53
2018-11-11T07:23:57.435Z,36.90
2018-11-11T07:26:25.650Z,40.70
2018-11-11T07:28:54.780Z,42.63
2018-11-11T07:31:23.621Z,41.27
2018-11-11T07:34:06.358Z,43.87
2018-11-11T07:36:34.768Z,47.43
2018-11-11T07:41:48.946Z,45.67
2018-11-11T07:44:16.798Z,50.43
2018-11-11T07:46:44.916Z,47.67
2018-11-11T07:49:12.957Z,50.77
2018-11-11T07:51:40.876Z,49.97
2018-11-11T07:54:28.437Z,44.93
2018-11-11T07:56:58.710Z,47.33
2018-11-11T07:59:28.323Z,50.10
2018-11-11T08:01:57.999Z,47.27
2018-11-11T08:04:25.887Z,48.33
2018-11-11T08:07:17.982Z,46.87
2018-11-11T08:10:01.218Z,48.73
2018-11-11T08:12:29.614Z,48.27
2018-11-11T08:14:58.728Z,43.43
2018-11-11T08:17:28.578Z,38.70
2018-11-11T08:19:57.161Z,44.53
2018-11-11T08:22:27.944Z,40.37
2018-11-11T08:24:58.109Z,37.73
2018-11-11T08:27:29.691Z,34.23
2018-11-11T08:29:57.730Z,30.13
2018-11-11T08:32:25.962Z,29.97
2018-11-11T08:34:53.958Z,26.77
2018-11-11T08:37:22.453Z,28.00
2018-11-11T08:39:51.182Z,26.43
2018-11-11T08:42:46.666Z,24.17
2018-11-11T08:45:37.742Z,19.50
2018-11-11T08:48:07.399Z,18.63
2018-11-11T08:50:36.059Z,16.20
2018-11-11T08:53:18.555Z,19.57
2018-11-11T08:56:18.602Z,16.33
2018-11-11T08:58:59.047Z,16.37
2018-11-11T09:01:50.833Z,13.33
2018-11-11T09:04:58.224Z,19.13
2018-11-11T09:07:29.962Z,14.77
2018-11-11T09:09:58.433Z,13.70
2018-11-11T09:12:26.957Z,13.83
2018-11-11T09:14:58.343Z,16.63
2018-11-11T09:17:43.568Z,14.97
2018-11-11T09:20:17.269Z,15.20
2018-11-11T09:22:49.000Z,11.90
2018-11-11T09:25:18.263Z,14.67
2018-11-11T09:27:46.364Z,12.67
2018-11-11T09:30:24.179Z,13.77
2018-11-11T09:32:52.218Z,12.23
2018-11-11T09:35:20.162Z,11.70
2018-11-11T09:37:48.896Z,12.67
2018-11-11T09:40:25.181Z,10.63
2018-11-11T09:42:55.163Z,8.93
2018-11-11T09:45:23.828Z,8.30
2018-11-11T09:47:53.534Z,7.37
2018-11-11T09:50:21.611Z,6.67
2018-11-11T09:52:50.389Z,5.97
2018-11-11T09:55:18.775Z,5.50
2018-11-11T10:02:22.201Z,5.23
2018-11-11T10:04:55.587Z,6.10
2018-11-11T10:07:30.060Z,6.63
2018-11-11T10:12:32.028Z,5.40
2018-11-11T10:15:25.784Z,7.07
2018-11-11T10:20:00.941Z,8.60
2018-11-11T10:22:52.154Z,6.03
2018-11-11T10:25:26.486Z,6.47
2018-11-11T10:30:02.067Z,5.43
2018-11-11T10:32:50.208Z,6.10
2018-11-11T10:35:26.108Z,4.30
2018-11-11T10:38:30.088Z,8.10
2018-11-11T10:41:07.309Z,4.03
2018-11-11T10:44:00.561Z,6.53
2018-11-11T10:46:41.931Z,4.63
2018-11-11T10:49:15.321Z,5.63
2018-11-11T10:51:48.367Z,5.37
2018-11-11T10:54:17.283Z,5.97
2018-11-11T10:56:46.880Z,5.57
2018-11-11T10:59:20.124Z,7.13
2018-11-11T11:01:59.615Z,9.67
2018-11-11T11:04:31.665Z,9.37
2018-11-11T11:07:29.333Z,10.10
2018-11-11T11:13:00.281Z,8.13
2018-11-11T11:15:33.891Z,8.57
2018-11-11T11:18:21.621Z,8.40
2018-11-11T11:20:50.111Z,8.47
2018-11-11T11:23:20.007Z,7.60
2018-11-11T11:25:51.024Z,7.73
2018-11-11T11:28:20.792Z,9.00
2018-11-11T11:30:50.393Z,7.93
2018-11-11T11:33:21.350Z,9.57
2018-11-11T11:35:51.381Z,8.80
2018-11-11T11:38:19.659Z,10.93
2018-11-11T11:40:47.587Z,10.50
2018-11-11T11:43:20.276Z,10.50
2018-11-11T11:45:55.545Z,7.40
2018-11-11T11:48:36.220Z,10.90
2018-11-11T11:51:08.610Z,9.00
2018-11-11T11:53:51.316Z,9.63
2018-11-11T11:56:38.741Z,9.67
2018-11-11T11:59:27.798Z,8.43
2018-11-11T12:01:59.839Z,12.17
2018-11-11T12:04:28.188Z,10.97
2018-11-11T12:07:07.534Z,13.07
2018-11-11T12:09:48.838Z,11.33
2018-11-11T12:12:17.548Z,7.80
2018-11-11T12:14:46.085Z,8.23
2018-11-11T12:17:18.225Z,9.50
2018-11-11T12:19:48.728Z,10.40
2018-11-11T12:22:18.396Z,10.37
2018-11-11T12:24:46.380Z,9.80
2018-11-11T12:27:17.903Z,8.13
2018-11-11T12:29:45.780Z,8.67
2018-11-11T12:32:15.579Z,8.83
2018-11-11T12:34:45.907Z,7.30
2018-11-11T12:37:19.124Z,8.40
2018-11-11T12:39:50.689Z,10.00
2018-11-11T12:48:42.558Z,8.40
2018-11-11T12:51:20.358Z,6.40
2018-11-11T12:53:50.019Z,5.87
2018-11-11T12:56:23.613Z,8.07
2018-11-11T12:58:57.699Z,6.10
2018-11-11T13:01:39.816Z,6.50
2018-11-11T13:04:12.869Z,6.10
2018-11-11T13:06:42.807Z,6.70
2018-11-11T13:09:45.291Z,8.57
2018-11-11T13:15:26.528Z,5.60
2018-11-11T13:18:16.907Z,6.67
2018-11-11T13:20:49.945Z,5.00
2018-11-11T13:23:23.574Z,8.17
2018-11-11T13:26:08.918Z,5.93
2018-11-11T13:28:39.977Z,6.17
2018-11-11T13:31:47.861Z,6.77
2018-11-11T13:37:58.735Z,6.00
2018-11-11T13:40:28.243Z,5.30
2018-11-11T13:46:42.565Z,6.07
2018-11-11T13:49:17.924Z,6.53
2018-11-11T13:51:46.822Z,5.87
2018-11-11T13:54:15.684Z,8.77
2018-11-11T14:00:20.895Z,6.77
2018-11-11T14:02:58.157Z,5.60
2018-11-11T14:05:40.537Z,8.73
2018-11-11T14:08:12.797Z,7.43
2018-11-11T14:10:45.912Z,7.70
2018-11-11T14:13:17.265Z,5.40
2018-11-11T14:15:48.549Z,6.80
2018-11-11T14:18:17.580Z,4.23
2018-11-11T14:20:53.508Z,6.67
2018-11-11T14:23:22.394Z,6.67
2018-11-11T14:25:50.371Z,5.23
2018-11-11T14:28:19.321Z,5.27
2018-11-11T14:30:49.919Z,7.57
2018-11-11T14:33:18.978Z,4.30
2018-11-11T14:35:49.578Z,5.20
2018-11-11T14:38:37.056Z,3.60
2018-11-11T14:41:20.185Z,4.23
2018-11-11T14:43:51.356Z,3.87
2018-11-11T14:46:19.748Z,4.37
2018-11-11T14:48:51.751Z,4.83
2018-11-11T14:51:20.858Z,2.80
2018-11-11T14:53:58.119Z,4.63
2018-11-11T15:00:11.138Z,4.50
2018-11-11T15:02:45.837Z,5.67
2018-11-11T15:05:20.867Z,8.43
2018-11-11T15:07:51.713Z,6.63
2018-11-11T15:10:19.776Z,7.13
2018-11-11T15:12:50.960Z,9.63
2018-11-11T15:15:20.790Z,7.80
2018-11-11T15:17:49.567Z,6.03
2018-11-11T15:20:18.421Z,5.97
2018-11-11T15:22:48.173Z,6.13
2018-11-11T15:25:26.853Z,6.73
2018-11-11T15:27:57.778Z,5.57
2018-11-11T15:30:50.789Z,6.23
2018-11-11T15:33:21.986Z,7.37
2018-11-11T15:35:53.781Z,3.53
2018-11-11T15:38:26.827Z,3.90
2018-11-11T15:41:16.004Z,6.83
2018-11-11T15:44:19.284Z,6.10
2018-11-11T15:46:49.774Z,5.10
2018-11-11T15:49:23.718Z,8.40
2018-11-11T15:51:52.341Z,5.93
2018-11-11T15:54:25.968Z,5.47
2018-11-11T15:57:05.046Z,4.67
2018-11-11T15:59:33.139Z,4.07
2018-11-11T16:02:04.738Z,5.10
2018-11-11T16:04:34.648Z,3.87
2018-11-11T16:07:05.644Z,5.57
2018-11-11T16:09:42.771Z,6.43
2018-11-11T16:12:17.381Z,4.37
2018-11-11T16:14:50.362Z,5.20
2018-11-11T16:17:19.335Z,4.03
2018-11-11T16:20:16.673Z,6.37
2018-11-11T16:22:49.656Z,3.27
2018-11-11T16:25:23.467Z,6.60
2018-11-11T16:28:00.823Z,4.90
2018-11-11T16:30:31.585Z,6.83
2018-11-11T16:33:05.351Z,3.87
2018-11-11T16:35:45.185Z,4.77
2018-11-11T16:41:45.959Z,4.37
2018-11-11T16:44:16.601Z,5.00
2018-11-11T16:46:46.082Z,6.83
2018-11-11T16:49:37.140Z,6.77
2018-11-11T16:55:34.739Z,6.50
2018-11-11T16:58:15.744Z,3.53
2018-11-11T17:00:47.297Z,7.80
2018-11-11T17:03:27.214Z,4.07
2018-11-11T17:05:56.581Z,4.50
2018-11-11T17:08:43.976Z,3.83
2018-11-11T17:11:12.267Z,2.77
2018-11-11T17:13:41.872Z,7.17
2018-11-11T17:16:12.784Z,6.00
2018-11-11T17:19:03.408Z,7.63
2018-11-11T17:21:42.791Z,5.47
2018-11-11T17:24:15.120Z,4.80
2018-11-11T17:26:50.596Z,6.03
2018-11-11T17:29:36.960Z,4.73
2018-11-11T17:35:56.426Z,3.17
2018-11-11T17:38:54.609Z,3.87
2018-11-11T17:41:25.059Z,5.60
2018-11-11T17:43:54.251Z,6.07
2018-11-11T17:46:24.254Z,6.23
2018-11-11T17:48:52.199Z,7.30
2018-11-11T17:51:27.008Z,5.63
2018-11-11T17:54:12.805Z,7.40
2018-11-11T17:57:13.673Z,8.73
2018-11-11T18:03:26.446Z,4.07
2018-11-11T18:06:05.271Z,4.23
2018-11-11T18:08:33.351Z,7.23
2018-11-11T18:11:01.283Z,6.27
2018-11-11T18:13:33.604Z,5.33
2018-11-11T18:23:09.676Z,5.03
2018-11-11T18:28:31.526Z,5.90
2018-11-11T18:31:02.461Z,5.23
2018-11-11T18:33:31.329Z,7.13
2018-11-11T18:36:00.482Z,6.23
2018-11-11T18:38:30.704Z,6.07
2018-11-11T18:40:59.634Z,4.27
2018-11-11T18:43:27.913Z,3.20
2018-11-11T18:45:57.833Z,4.30
2018-11-11T18:48:26.107Z,6.27
2018-11-11T18:50:58.864Z,4.40
2018-11-11T18:53:30.330Z,6.77
2018-11-11T18:56:06.088Z,2.73
2018-11-11T18:58:59.768Z,4.70
2018-11-11T19:01:36.970Z,5.87
2018-11-11T19:04:10.292Z,5.13
2018-11-11T19:06:46.784Z,2.70
2018-11-11T19:09:16.876Z,4.43
2018-11-11T19:11:58.561Z,5.97
2018-11-11T19:14:30.343Z,8.03
2018-11-11T19:17:25.912Z,5.27
2018-11-11T19:20:24.717Z,5.87
2018-11-11T19:22:53.188Z,3.47
2018-11-11T19:25:27.534Z,4.73
2018-11-11T19:28:04.526Z,3.97
2018-11-11T19:30:39.464Z,7.33
2018-11-11T19:33:07.366Z,3.23
2018-11-11T19:35:36.426Z,6.60
2018-11-11T19:38:14.186Z,4.00
2018-11-11T19:40:42.692Z,3.10
2018-11-11T19:43:10.730Z,5.67
2018-11-11T19:45:42.277Z,3.93
2018-11-11T19:48:16.565Z,3.47
2018-11-11T19:50:56.795Z,5.10
2018-11-11T19:53:27.995Z,4.60
2018-11-11T19:55:59.891Z,4.33
2018-11-11T19:58:29.784Z,4.20
2018-11-11T20:01:33.824Z,4.80
2018-11-11T20:04:07.512Z,3.43
2018-11-11T20:06:39.342Z,4.47
2018-11-11T20:09:12.665Z,3.93
2018-11-11T20:11:51.567Z,3.00
2018-11-11T20:14:20.579Z,4.00
2018-11-11T20:16:48.696Z,3.70
2018-11-11T20:19:16.692Z,4.90
2018-11-11T20:21:53.215Z,2.40
2018-11-11T20:24:28.692Z,3.73
2018-11-11T20:26:57.690Z,3.67
2018-11-11T20:29:26.747Z,3.80
2018-11-11T20:31:54.778Z,3.80
2018-11-11T20:34:25.928Z,3.17
2018-11-11T20:36:53.912Z,2.17
2018-11-11T20:39:24.893Z,4.40
2018-11-11T20:41:58.468Z,2.77
2018-11-11T20:44:41.459Z,3.43
2018-11-11T20:47:11.965Z,3.17
2018-11-11T20:50:11.067Z,2.87
2018-11-11T20:52:43.752Z,3.53
2018-11-11T20:55:15.428Z,3.83
2018-11-11T20:57:44.814Z,4.33
2018-11-11T21:00:18.984Z,3.77
2018-11-11T21:02:48.736Z,2.87
2018-11-11T21:05:18.766Z,4.30
2018-11-11T21:07:59.562Z,4.23
2018-11-11T21:10:30.381Z,2.67
2018-11-11T21:13:01.314Z,3.80
2018-11-11T21:15:32.162Z,2.53
2018-11-11T21:18:14.429Z,4.80
2018-11-11T21:20:50.486Z,6.23
2018-11-11T21:26:22.730Z,5.37
2018-11-11T21:28:55.186Z,4.60
2018-11-11T21:31:26.705Z,3.00
2018-11-11T21:34:01.773Z,4.90
2018-11-11T21:36:30.292Z,6.07
2018-11-11T21:39:00.418Z,5.70
2018-11-11T21:41:30.411Z,4.00
2018-11-11T21:44:05.084Z,4.57
2018-11-11T21:46:41.843Z,4.87
2018-11-11T21:49:12.783Z,3.83
2018-11-11T21:51:46.013Z,4.73
2018-11-11T21:54:18.294Z,2.87
2018-11-11T21:57:12.706Z,2.80
2018-11-11T21:59:43.206Z,3.00
2018-11-11T22:02:14.166Z,3.37
2018-11-11T22:04:45.783Z,2.97
2018-11-11T22:07:20.767Z,3.10
2018-11-11T22:09:51.121Z,4.07
2018-11-11T22:12:21.976Z,2.37
2018-11-11T22:14:51.910Z,4.00
2018-11-11T22:17:20.602Z,2.70
2018-11-11T22:19:53.032Z,3.10
2018-11-11T22:22:26.638Z,3.93
2018-11-11T22:25:21.131Z,3.70
2018-11-11T22:27:52.490Z,3.90
2018-11-11T22:30:22.518Z,5.67
2018-11-11T22:32:53.057Z,3.60
2018-11-11T22:35:28.012Z,5.33
2018-11-11T22:37:58.856Z,2.70
2018-11-11T22:40:32.750Z,3.17
2018-11-11T22:43:12.681Z,2.83
2018-11-11T22:45:49.989Z,3.53
2018-11-11T22:48:21.421Z,6.43
2018-11-11T22:51:12.464Z,2.57
2018-11-11T22:54:02.306Z,3.83
2018-11-11T22:56:35.224Z,4.90
2018-11-11T22:59:07.898Z,3.97
2018-11-11T23:01:39.186Z,3.83
2018-11-11T23:04:19.449Z,4.63
2018-11-11T23:07:02.549Z,5.70
2018-11-11T23:09:37.474Z,3.27
2018-11-11T23:12:06.922Z,2.53
2018-11-11T23:14:37.887Z,3.00
2018-11-11T23:17:08.395Z,2.87
2018-11-11T23:19:38.410Z,3.80
2018-11-11T23:22:08.408Z,2.97
2018-11-11T23:24:41.592Z,3.90
2018-11-11T23:27:12.863Z,3.03
2018-11-11T23:29:42.224Z,4.37
2018-11-11T23:32:11.848Z,2.80
2018-11-11T23:34:40.889Z,2.80
2018-11-11T23:37:15.754Z,3.73
2018-11-11T23:39:47.328Z,2.77
2018-11-11T23:42:16.798Z,4.07
2018-11-11T23:44:50.078Z,4.07
2018-11-11T23:47:21.423Z,4.53
2018-11-11T23:49:51.464Z,3.47
2018-11-11T23:52:24.501Z,3.37
2018-11-11T23:54:54.781Z,3.93
2018-11-11T23:57:25.395Z,3.73
2018-11-11T23:59:54.811Z,3.53
